sensor_id;sensor_type;location;lat;lon;timestamp;pressure;altitude;pressure_sealevel;temperature;humidity
52249;BME280;38541;48.130;8.378;2022-11-03T00:04:11;93129.25;;;3.88;72.66
52249;BME280;38541;48.130;8.378;2022-11-03T00:06:39;93118.94;;;3.81;73.05
52249;BME280;38541;48.130;8.378;2022-11-03T00:09:08;93118.13;;;3.81;73.61
52249;BME280;38541;48.130;8.378;2022-11-03T00:11:37;93123.75;;;3.78;72.97
52249;BME280;38541;48.130;8.378;2022-11-03T00:14:05;93122.19;;;3.70;71.96
52249;BME280;38541;48.130;8.378;2022-11-03T00:16:32;93116.72;;;3.53;71.33
52249;BME280;38541;48.130;8.378;2022-11-03T00:18:58;93114.50;;;3.50;71.23
52249;BME280;38541;48.130;8.378;2022-11-03T00:21:25;93111.13;;;3.49;71.93
52249;BME280;38541;48.130;8.378;2022-11-03T00:23:51;93109.53;;;3.48;72.31
52249;BME280;38541;48.130;8.378;2022-11-03T00:28:51;93106.78;;;3.43;72.57
52249;BME280;38541;48.130;8.378;2022-11-03T00:31:21;93111.59;;;3.39;73.11
52249;BME280;38541;48.130;8.378;2022-11-03T00:33:48;93095.00;;;3.40;73.53
52249;BME280;38541;48.130;8.378;2022-11-03T00:36:19;93086.59;;;3.45;74.81
52249;BME280;38541;48.130;8.378;2022-11-03T00:38:46;93078.75;;;3.52;75.18
52249;BME280;38541;48.130;8.378;2022-11-03T00:41:13;93082.38;;;3.51;74.62
52249;BME280;38541;48.130;8.378;2022-11-03T00:43:41;93078.41;;;3.41;72.71
52249;BME280;38541;48.130;8.378;2022-11-03T00:46:09;93081.66;;;3.30;72.30
52249;BME280;38541;48.130;8.378;2022-11-03T00:48:35;93080.16;;;3.16;72.75
52249;BME280;38541;48.130;8.378;2022-11-03T00:51:12;93082.91;;;3.21;73.60
52249;BME280;38541;48.130;8.378;2022-11-03T00:56:12;93089.75;;;3.08;73.44
52249;BME280;38541;48.130;8.378;2022-11-03T00:58:40;93090.34;;;3.10;74.82
52249;BME280;38541;48.130;8.378;2022-11-03T01:01:12;93092.91;;;3.17;75.83
52249;BME280;38541;48.130;8.378;2022-11-03T01:03:41;93086.50;;;3.26;78.26
52249;BME280;38541;48.130;8.378;2022-11-03T01:06:28;93090.72;;;3.21;77.06
52249;BME280;38541;48.130;8.378;2022-11-03T01:09:13;93086.28;;;3.28;77.98
52249;BME280;38541;48.130;8.378;2022-11-03T01:11:39;93084.91;;;3.25;76.26
52249;BME280;38541;48.130;8.378;2022-11-03T01:14:12;93084.47;;;3.28;75.83
52249;BME280;38541;48.130;8.378;2022-11-03T01:16:39;93085.25;;;3.29;74.89
52249;BME280;38541;48.130;8.378;2022-11-03T01:19:07;93072.94;;;3.24;74.79
52249;BME280;38541;48.130;8.378;2022-11-03T01:21:34;93065.34;;;3.23;74.48
52249;BME280;38541;48.130;8.378;2022-11-03T01:24:02;93072.13;;;3.24;74.59
52249;BME280;38541;48.130;8.378;2022-11-03T01:26:29;93071.13;;;3.18;74.04
52249;BME280;38541;48.130;8.378;2022-11-03T01:28:58;93068.53;;;3.18;74.16
52249;BME280;38541;48.130;8.378;2022-11-03T01:31:26;93066.59;;;3.13;75.14
52249;BME280;38541;48.130;8.378;2022-11-03T01:33:54;93068.78;;;3.17;75.92
52249;BME280;38541;48.130;8.378;2022-11-03T01:36:21;93066.59;;;3.13;75.16
52249;BME280;38541;48.130;8.378;2022-11-03T01:38:47;93067.34;;;3.21;76.10
52249;BME280;38541;48.130;8.378;2022-11-03T01:41:19;93067.94;;;3.23;76.70
52249;BME280;38541;48.130;8.378;2022-11-03T01:44:35;93060.72;;;3.25;77.31
52249;BME280;38541;48.130;8.378;2022-11-03T01:46:54;93053.34;;;3.22;75.74
52249;BME280;38541;48.130;8.378;2022-11-03T01:49:51;93051.41;;;3.10;74.54
52249;BME280;38541;48.130;8.378;2022-11-03T01:52:24;93047.25;;;3.03;73.88
52249;BME280;38541;48.130;8.378;2022-11-03T01:54:58;93045.47;;;3.03;74.27
52249;BME280;38541;48.130;8.378;2022-11-03T01:57:32;93038.88;;;3.00;73.88
52249;BME280;38541;48.130;8.378;2022-11-03T02:00:00;93038.69;;;3.02;73.93
52249;BME280;38541;48.130;8.378;2022-11-03T02:02:27;93038.09;;;3.00;73.76
52249;BME280;38541;48.130;8.378;2022-11-03T02:04:55;93040.53;;;2.95;73.19
52249;BME280;38541;48.130;8.378;2022-11-03T02:07:28;93027.75;;;2.93;73.61
52249;BME280;38541;48.130;8.378;2022-11-03T02:09:58;93030.16;;;2.95;74.01
52249;BME280;38541;48.130;8.378;2022-11-03T02:12:24;93029.94;;;2.90;73.43
52249;BME280;38541;48.130;8.378;2022-11-03T02:14:57;93016.81;;;2.84;73.13
52249;BME280;38541;48.130;8.378;2022-11-03T02:17:26;93013.81;;;2.81;73.38
52249;BME280;38541;48.130;8.378;2022-11-03T02:20:04;93019.66;;;2.76;73.57
52249;BME280;38541;48.130;8.378;2022-11-03T02:25:46;92997.66;;;2.79;74.34
52249;BME280;38541;48.130;8.378;2022-11-03T02:28:17;92996.31;;;2.76;73.68
52249;BME280;38541;48.130;8.378;2022-11-03T02:31:20;92983.72;;;2.73;74.52
52249;BME280;38541;48.130;8.378;2022-11-03T02:34:15;92986.53;;;2.71;75.46
52249;BME280;38541;48.130;8.378;2022-11-03T02:37:05;92979.16;;;2.75;74.90
52249;BME280;38541;48.130;8.378;2022-11-03T02:39:37;92972.56;;;2.73;74.77
52249;BME280;38541;48.130;8.378;2022-11-03T02:42:06;92972.97;;;2.76;75.70
52249;BME280;38541;48.130;8.378;2022-11-03T02:44:34;92970.94;;;2.78;75.71
52249;BME280;38541;48.130;8.378;2022-11-03T02:47:04;92957.97;;;2.78;76.01
52249;BME280;38541;48.130;8.378;2022-11-03T02:49:46;92958.78;;;2.72;75.73
52249;BME280;38541;48.130;8.378;2022-11-03T02:52:33;92953.38;;;2.80;76.15
52249;BME280;38541;48.130;8.378;2022-11-03T02:55:25;92950.19;;;2.78;74.81
52249;BME280;38541;48.130;8.378;2022-11-03T02:58:16;92949.00;;;2.74;74.86
52249;BME280;38541;48.130;8.378;2022-11-03T03:00:50;92943.22;;;2.72;74.47
52249;BME280;38541;48.130;8.378;2022-11-03T03:03:31;92933.69;;;2.66;74.81
52249;BME280;38541;48.130;8.378;2022-11-03T03:06:08;92935.06;;;2.75;76.52
52249;BME280;38541;48.130;8.378;2022-11-03T03:08:38;92925.84;;;2.79;77.57
52249;BME280;38541;48.130;8.378;2022-11-03T03:11:07;92929.06;;;2.75;77.57
52249;BME280;38541;48.130;8.378;2022-11-03T03:13:36;92926.50;;;2.68;75.30
52249;BME280;38541;48.130;8.378;2022-11-03T03:16:16;92931.09;;;2.66;75.30
52249;BME280;38541;48.130;8.378;2022-11-03T03:18:46;92924.31;;;2.65;75.36
52249;BME280;38541;48.130;8.378;2022-11-03T03:21:24;92912.34;;;2.64;74.83
52249;BME280;38541;48.130;8.378;2022-11-03T03:23:56;92920.56;;;2.61;75.28
52249;BME280;38541;48.130;8.378;2022-11-03T03:26:27;92915.53;;;2.66;75.90
52249;BME280;38541;48.130;8.378;2022-11-03T03:28:58;92914.69;;;2.72;76.04
52249;BME280;38541;48.130;8.378;2022-11-03T03:31:26;92918.09;;;2.73;77.38
52249;BME280;38541;48.130;8.378;2022-11-03T03:33:56;92914.69;;;2.72;77.86
52249;BME280;38541;48.130;8.378;2022-11-03T03:36:37;92906.31;;;2.70;76.62
52249;BME280;38541;48.130;8.378;2022-11-03T03:43:18;92901.97;;;2.64;75.22
52249;BME280;38541;48.130;8.378;2022-11-03T03:45:49;92880.84;;;2.60;74.55
52249;BME280;38541;48.130;8.378;2022-11-03T03:48:17;92878.06;;;2.62;74.78
52249;BME280;38541;48.130;8.378;2022-11-03T03:50:45;92881.06;;;2.59;74.89
52249;BME280;38541;48.130;8.378;2022-11-03T03:53:14;92873.66;;;2.62;74.87
52249;BME280;38541;48.130;8.378;2022-11-03T03:55:43;92866.44;;;2.64;75.81
52249;BME280;38541;48.130;8.378;2022-11-03T03:58:13;92868.50;;;2.55;74.68
52249;BME280;38541;48.130;8.378;2022-11-03T04:00:40;92855.41;;;2.43;73.82
52249;BME280;38541;48.130;8.378;2022-11-03T04:03:28;92862.63;;;2.35;74.49
52249;BME280;38541;48.130;8.378;2022-11-03T04:05:54;92847.50;;;2.32;74.86
52249;BME280;38541;48.130;8.378;2022-11-03T04:08:21;92849.47;;;2.36;75.04
52249;BME280;38541;48.130;8.378;2022-11-03T04:10:48;92846.88;;;2.36;75.32
52249;BME280;38541;48.130;8.378;2022-11-03T04:13:33;92843.09;;;2.39;75.25
52249;BME280;38541;48.130;8.378;2022-11-03T04:16:18;92850.44;;;2.42;75.53
52249;BME280;38541;48.130;8.378;2022-11-03T04:19:03;92843.88;;;2.39;75.35
52249;BME280;38541;48.130;8.378;2022-11-03T04:21:48;92841.53;;;2.31;75.41
52249;BME280;38541;48.130;8.378;2022-11-03T04:24:33;92838.72;;;2.33;75.90
52249;BME280;38541;48.130;8.378;2022-11-03T04:29:40;92837.69;;;2.40;76.03
52249;BME280;38541;48.130;8.378;2022-11-03T04:32:17;92837.91;;;2.39;76.45
52249;BME280;38541;48.130;8.378;2022-11-03T04:34:45;92837.28;;;2.37;75.78
52249;BME280;38541;48.130;8.378;2022-11-03T04:37:13;92835.13;;;2.34;75.94
52249;BME280;38541;48.130;8.378;2022-11-03T04:39:40;92827.16;;;2.35;76.21
52249;BME280;38541;48.130;8.378;2022-11-03T04:42:16;92829.16;;;2.33;76.02
52249;BME280;38541;48.130;8.378;2022-11-03T04:44:45;92828.16;;;2.34;75.81
52249;BME280;38541;48.130;8.378;2022-11-03T04:47:12;92833.50;;;2.39;76.32
52249;BME280;38541;48.130;8.378;2022-11-03T04:49:40;92824.31;;;2.37;76.11
52249;BME280;38541;48.130;8.378;2022-11-03T04:52:18;92812.22;;;2.31;75.72
52249;BME280;38541;48.130;8.378;2022-11-03T04:54:47;92811.81;;;2.27;76.20
52249;BME280;38541;48.130;8.378;2022-11-03T04:57:15;92814.38;;;2.34;75.82
52249;BME280;38541;48.130;8.378;2022-11-03T04:59:44;92814.38;;;2.34;76.06
52249;BME280;38541;48.130;8.378;2022-11-03T05:02:14;92814.63;;;2.25;75.80
52249;BME280;38541;48.130;8.378;2022-11-03T05:04:41;92801.28;;;2.22;75.54
52249;BME280;38541;48.130;8.378;2022-11-03T05:07:32;92795.75;;;2.18;75.88
52249;BME280;38541;48.130;8.378;2022-11-03T05:10:00;92790.97;;;2.15;75.44
52249;BME280;38541;48.130;8.378;2022-11-03T05:12:27;92790.78;;;2.17;76.11
52249;BME280;38541;48.130;8.378;2022-11-03T05:14:54;92787.22;;;2.11;75.97
52249;BME280;38541;48.130;8.378;2022-11-03T05:17:26;92785.16;;;2.20;76.32
52249;BME280;38541;48.130;8.378;2022-11-03T05:20:01;92778.78;;;2.22;76.92
52249;BME280;38541;48.130;8.378;2022-11-03T05:22:33;92772.94;;;2.27;76.64
52249;BME280;38541;48.130;8.378;2022-11-03T05:25:03;92765.59;;;2.24;76.19
52249;BME280;38541;48.130;8.378;2022-11-03T05:27:35;92769.00;;;2.24;76.20
52249;BME280;38541;48.130;8.378;2022-11-03T05:30:03;92762.06;;;2.18;75.23
52249;BME280;38541;48.130;8.378;2022-11-03T05:32:32;92757.66;;;2.19;75.96
52249;BME280;38541;48.130;8.378;2022-11-03T05:34:59;92756.28;;;2.16;75.05
52249;BME280;38541;48.130;8.378;2022-11-03T05:37:35;92758.69;;;2.11;75.50
52249;BME280;38541;48.130;8.378;2022-11-03T05:42:41;92766.91;;;2.08;75.03
52249;BME280;38541;48.130;8.378;2022-11-03T05:45:22;92759.53;;;2.05;75.13
52249;BME280;38541;48.130;8.378;2022-11-03T05:47:53;92759.53;;;2.05;74.81
52249;BME280;38541;48.130;8.378;2022-11-03T05:50:22;92752.78;;;2.04;75.05
52249;BME280;38541;48.130;8.378;2022-11-03T05:53:10;92748.19;;;2.06;76.51
52249;BME280;38541;48.130;8.378;2022-11-03T05:55:42;92737.81;;;2.06;75.84
52249;BME280;38541;48.130;8.378;2022-11-03T06:01:03;92735.22;;;2.06;75.59
52249;BME280;38541;48.130;8.378;2022-11-03T06:03:33;92737.19;;;2.10;75.90
52249;BME280;38541;48.130;8.378;2022-11-03T06:06:01;92730.34;;;2.16;76.32
52249;BME280;38541;48.130;8.378;2022-11-03T06:08:34;92733.13;;;2.21;75.32
52249;BME280;38541;48.130;8.378;2022-11-03T06:11:07;92736.16;;;2.18;74.67
52249;BME280;38541;48.130;8.378;2022-11-03T06:13:38;92738.34;;;2.14;74.27
52249;BME280;38541;48.130;8.378;2022-11-03T06:16:39;92726.41;;;2.13;74.63
52249;BME280;38541;48.130;8.378;2022-11-03T06:22:17;92718.59;;;2.20;75.24
52249;BME280;38541;48.130;8.378;2022-11-03T06:24:45;92723.34;;;2.23;75.28
52249;BME280;38541;48.130;8.378;2022-11-03T06:27:19;92721.09;;;2.27;75.62
52249;BME280;38541;48.130;8.378;2022-11-03T06:29:51;92712.53;;;2.26;75.23
52249;BME280;38541;48.130;8.378;2022-11-03T06:32:18;92713.94;;;2.29;75.40
52249;BME280;38541;48.130;8.378;2022-11-03T06:34:47;92717.88;;;2.32;75.24
52249;BME280;38541;48.130;8.378;2022-11-03T06:37:22;92703.13;;;2.32;75.20
52249;BME280;38541;48.130;8.378;2022-11-03T06:39:50;92698.91;;;2.38;75.12
52249;BME280;38541;48.130;8.378;2022-11-03T06:42:20;92705.81;;;2.44;75.04
52249;BME280;38541;48.130;8.378;2022-11-03T06:44:50;92695.59;;;2.49;74.71
52249;BME280;38541;48.130;8.378;2022-11-03T06:47:22;92696.34;;;2.56;74.45
52249;BME280;38541;48.130;8.378;2022-11-03T06:49:50;92696.50;;;2.62;74.63
52249;BME280;38541;48.130;8.378;2022-11-03T06:52:26;92694.06;;;2.67;74.61
52249;BME280;38541;48.130;8.378;2022-11-03T06:54:59;92692.41;;;2.73;74.75
52249;BME280;38541;48.130;8.378;2022-11-03T06:57:29;92686.34;;;2.79;75.60
52249;BME280;38541;48.130;8.378;2022-11-03T06:59:56;92687.94;;;2.80;74.99
52249;BME280;38541;48.130;8.378;2022-11-03T07:03:09;92685.13;;;2.81;75.00
52249;BME280;38541;48.130;8.378;2022-11-03T07:05:39;92687.81;;;2.93;75.70
52249;BME280;38541;48.130;8.378;2022-11-03T07:08:28;92682.03;;;3.10;75.47
52249;BME280;38541;48.130;8.378;2022-11-03T07:11:10;92678.38;;;3.18;75.68
52249;BME280;38541;48.130;8.378;2022-11-03T07:13:40;92675.03;;;3.29;76.16
52249;BME280;38541;48.130;8.378;2022-11-03T07:16:34;92673.16;;;3.36;76.93
52249;BME280;38541;48.130;8.378;2022-11-03T07:19:04;92676.00;;;3.47;76.86
52249;BME280;38541;48.130;8.378;2022-11-03T07:21:53;92679.91;;;3.56;76.57
52249;BME280;38541;48.130;8.378;2022-11-03T07:24:24;92667.72;;;3.68;76.27
52249;BME280;38541;48.130;8.378;2022-11-03T07:30:16;92660.88;;;3.86;76.07
52249;BME280;38541;48.130;8.378;2022-11-03T07:32:43;92663.38;;;3.93;76.26
52249;BME280;38541;48.130;8.378;2022-11-03T07:37:46;92660.38;;;4.08;77.13
52249;BME280;38541;48.130;8.378;2022-11-03T07:40:21;92661.41;;;4.19;77.58
52249;BME280;38541;48.130;8.378;2022-11-03T07:42:49;92658.84;;;4.31;78.20
52249;BME280;38541;48.130;8.378;2022-11-03T07:45:36;92658.03;;;4.42;79.12
52249;BME280;38541;48.130;8.378;2022-11-03T07:48:24;92659.03;;;4.53;78.97
52249;BME280;38541;48.130;8.378;2022-11-03T07:50:53;92650.25;;;4.66;79.13
52249;BME280;38541;48.130;8.378;2022-11-03T07:53:27;92648.41;;;4.78;79.16
52249;BME280;38541;48.130;8.378;2022-11-03T07:55:57;92648.38;;;4.90;79.62
52249;BME280;38541;48.130;8.378;2022-11-03T07:58:34;92642.72;;;5.05;79.88
52249;BME280;38541;48.130;8.378;2022-11-03T08:01:01;92642.69;;;5.17;80.24
52249;BME280;38541;48.130;8.378;2022-11-03T08:03:43;92645.81;;;5.31;80.25
52249;BME280;38541;48.130;8.378;2022-11-03T08:06:11;92647.13;;;5.46;80.27
52249;BME280;38541;48.130;8.378;2022-11-03T08:08:42;92646.84;;;5.59;80.79
52249;BME280;38541;48.130;8.378;2022-11-03T08:11:09;92643.72;;;5.74;81.32
52249;BME280;38541;48.130;8.378;2022-11-03T08:13:35;92633.78;;;5.88;81.46
52249;BME280;38541;48.130;8.378;2022-11-03T08:16:02;92627.81;;;6.05;81.62
52249;BME280;38541;48.130;8.378;2022-11-03T08:18:28;92623.97;;;6.24;82.07
52249;BME280;38541;48.130;8.378;2022-11-03T08:20:55;92614.31;;;6.42;82.61
52249;BME280;38541;48.130;8.378;2022-11-03T08:23:21;92618.47;;;6.60;83.19
52249;BME280;38541;48.130;8.378;2022-11-03T08:25:52;92615.56;;;6.79;83.35
52249;BME280;38541;48.130;8.378;2022-11-03T08:28:18;92607.72;;;6.96;83.20
52249;BME280;38541;48.130;8.378;2022-11-03T08:30:45;92607.31;;;7.09;82.90
52249;BME280;38541;48.130;8.378;2022-11-03T08:33:11;92607.75;;;7.23;82.90
52249;BME280;38541;48.130;8.378;2022-11-03T08:35:38;92606.34;;;7.38;82.35
52249;BME280;38541;48.130;8.378;2022-11-03T08:38:04;92603.59;;;7.50;82.09
52249;BME280;38541;48.130;8.378;2022-11-03T08:40:31;92602.13;;;7.59;81.91
52249;BME280;38541;48.130;8.378;2022-11-03T08:42:57;92594.91;;;7.71;81.82
52249;BME280;38541;48.130;8.378;2022-11-03T08:45:25;92596.06;;;7.86;81.73
52249;BME280;38541;48.130;8.378;2022-11-03T08:47:52;92585.94;;;7.95;81.75
52249;BME280;38541;48.130;8.378;2022-11-03T08:50:18;92594.19;;;8.09;81.60
52249;BME280;38541;48.130;8.378;2022-11-03T08:52:45;92592.97;;;8.22;81.05
52249;BME280;38541;48.130;8.378;2022-11-03T08:55:11;92591.72;;;8.30;80.40
52249;BME280;38541;48.130;8.378;2022-11-03T08:57:38;92594.91;;;8.37;80.79
52249;BME280;38541;48.130;8.378;2022-11-03T09:00:05;92588.66;;;8.43;80.62
52249;BME280;38541;48.130;8.378;2022-11-03T09:02:31;92590.53;;;8.48;80.32
52249;BME280;38541;48.130;8.378;2022-11-03T09:04:58;92596.41;;;8.60;80.39
52249;BME280;38541;48.130;8.378;2022-11-03T09:07:25;92585.72;;;8.72;79.95
52249;BME280;38541;48.130;8.378;2022-11-03T09:10:11;92581.31;;;8.83;79.68
52249;BME280;38541;48.130;8.378;2022-11-03T09:12:50;92582.13;;;8.89;79.66
52249;BME280;38541;48.130;8.378;2022-11-03T09:15:16;92575.63;;;8.96;79.31
52249;BME280;38541;48.130;8.378;2022-11-03T09:17:43;92569.63;;;9.06;79.62
52249;BME280;38541;48.130;8.378;2022-11-03T09:20:11;92561.56;;;9.18;79.07
52249;BME280;38541;48.130;8.378;2022-11-03T09:22:38;92565.00;;;9.29;79.14
52249;BME280;38541;48.130;8.378;2022-11-03T09:25:04;92560.31;;;9.41;79.04
52249;BME280;38541;48.130;8.378;2022-11-03T09:27:32;92556.94;;;9.56;78.40
52249;BME280;38541;48.130;8.378;2022-11-03T09:29:58;92553.53;;;9.71;78.63
52249;BME280;38541;48.130;8.378;2022-11-03T09:32:39;92553.53;;;9.92;78.07
52249;BME280;38541;48.130;8.378;2022-11-03T09:35:06;92548.28;;;10.13;77.45
52249;BME280;38541;48.130;8.378;2022-11-03T09:37:33;92545.13;;;10.32;77.45
52249;BME280;38541;48.130;8.378;2022-11-03T09:40:00;92547.47;;;10.54;76.65
52249;BME280;38541;48.130;8.378;2022-11-03T09:42:27;92539.81;;;10.78;76.37
52249;BME280;38541;48.130;8.378;2022-11-03T09:44:54;92538.38;;;11.07;74.82
52249;BME280;38541;48.130;8.378;2022-11-03T09:47:27;92534.41;;;11.15;74.34
52249;BME280;38541;48.130;8.378;2022-11-03T09:49:55;92534.41;;;11.15;73.07
52249;BME280;38541;48.130;8.378;2022-11-03T09:52:23;92525.47;;;11.16;73.38
52249;BME280;38541;48.130;8.378;2022-11-03T09:54:53;92529.13;;;11.20;73.33
52249;BME280;38541;48.130;8.378;2022-11-03T09:57:21;92516.53;;;11.17;72.70
52249;BME280;38541;48.130;8.378;2022-11-03T09:59:49;92513.31;;;11.25;73.05
52249;BME280;38541;48.130;8.378;2022-11-03T10:02:29;92524.06;;;11.28;72.43
52249;BME280;38541;48.130;8.378;2022-11-03T10:04:58;92521.97;;;11.31;72.43
52249;BME280;38541;48.130;8.378;2022-11-03T10:07:35;92516.94;;;11.34;72.59
52249;BME280;38541;48.130;8.378;2022-11-03T10:10:02;92514.84;;;11.36;71.98
52249;BME280;38541;48.130;8.378;2022-11-03T10:12:31;92515.91;;;11.35;72.00
52249;BME280;38541;48.130;8.378;2022-11-03T10:15:01;92508.50;;;11.37;72.18
52249;BME280;38541;48.130;8.378;2022-11-03T10:17:29;92508.47;;;11.42;72.20
52249;BME280;38541;48.130;8.378;2022-11-03T10:19:57;92514.50;;;11.48;72.33
52249;BME280;38541;48.130;8.378;2022-11-03T10:22:23;92504.78;;;11.49;72.28
52249;BME280;38541;48.130;8.378;2022-11-03T10:28:18;92495.22;;;11.58;73.09
52249;BME280;38541;48.130;8.378;2022-11-03T10:30:52;92490.50;;;11.55;72.85
52249;BME280;38541;48.130;8.378;2022-11-03T10:33:41;92481.59;;;11.51;72.70
52249;BME280;38541;48.130;8.378;2022-11-03T10:38:41;92478.00;;;11.36;73.15
52249;BME280;38541;48.130;8.378;2022-11-03T10:43:41;92477.00;;;11.32;74.00
52249;BME280;38541;48.130;8.378;2022-11-03T10:46:20;92476.19;;;11.32;74.08
52249;BME280;38541;48.130;8.378;2022-11-03T10:49:14;92455.91;;;11.37;73.98
52249;BME280;38541;48.130;8.378;2022-11-03T10:51:43;92453.28;;;11.37;73.61
52249;BME280;38541;48.130;8.378;2022-11-03T10:54:15;92452.22;;;11.38;73.51
52249;BME280;38541;48.130;8.378;2022-11-03T10:56:43;92454.84;;;11.38;73.91
52249;BME280;38541;48.130;8.378;2022-11-03T10:59:16;92444.28;;;11.49;73.65
52249;BME280;38541;48.130;8.378;2022-11-03T11:01:43;92441.63;;;11.49;73.58
52249;BME280;38541;48.130;8.378;2022-11-03T11:04:17;92434.19;;;11.56;73.95
52249;BME280;38541;48.130;8.378;2022-11-03T11:06:45;92433.09;;;11.62;73.63
52249;BME280;38541;48.130;8.378;2022-11-03T11:09:19;92436.22;;;11.64;73.45
52249;BME280;38541;48.130;8.378;2022-11-03T11:12:14;92427.31;;;11.60;74.00
52249;BME280;38541;48.130;8.378;2022-11-03T11:22:44;92408.66;;;11.62;74.23
52249;BME280;38541;48.130;8.378;2022-11-03T11:25:11;92411.47;;;11.65;74.05
52249;BME280;38541;48.130;8.378;2022-11-03T11:32:58;92408.84;;;11.70;74.23
52249;BME280;38541;48.130;8.378;2022-11-03T11:37:53;92398.00;;;11.77;73.88
52249;BME280;38541;48.130;8.378;2022-11-03T11:48:32;92386.84;;;12.15;72.86
52249;BME280;38541;48.130;8.378;2022-11-03T11:50:59;92379.66;;;12.21;72.57
52249;BME280;38541;48.130;8.378;2022-11-03T11:53:26;92373.50;;;12.31;71.93
52249;BME280;38541;48.130;8.378;2022-11-03T11:55:59;92366.94;;;12.28;72.51
52249;BME280;38541;48.130;8.378;2022-11-03T12:01:30;92353.34;;;12.21;72.39
52249;BME280;38541;48.130;8.378;2022-11-03T12:04:04;92349.91;;;12.20;72.43
52249;BME280;38541;48.130;8.378;2022-11-03T12:06:37;92337.59;;;12.16;72.00
52249;BME280;38541;48.130;8.378;2022-11-03T12:09:15;92333.41;;;12.15;72.47
52249;BME280;38541;48.130;8.378;2022-11-03T12:11:46;92330.53;;;12.11;72.70
52249;BME280;38541;48.130;8.378;2022-11-03T12:16:55;92315.16;;;11.94;73.01
52249;BME280;38541;48.130;8.378;2022-11-03T12:22:01;92304.97;;;11.87;73.39
52249;BME280;38541;48.130;8.378;2022-11-03T12:26:58;92285.41;;;11.93;72.89
52249;BME280;38541;48.130;8.378;2022-11-03T12:29:25;92284.91;;;11.91;73.33
52249;BME280;38541;48.130;8.378;2022-11-03T12:31:51;92273.81;;;11.94;72.99
52249;BME280;38541;48.130;8.378;2022-11-03T12:34:19;92273.22;;;12.03;72.84
52249;BME280;38541;48.130;8.378;2022-11-03T12:36:46;92266.59;;;12.05;72.73
52249;BME280;38541;48.130;8.378;2022-11-03T12:39:20;92244.97;;;12.08;72.62
52249;BME280;38541;48.130;8.378;2022-11-03T12:41:46;92236.22;;;12.13;72.11
52249;BME280;38541;48.130;8.378;2022-11-03T12:44:12;92235.66;;;12.16;72.09
52249;BME280;38541;48.130;8.378;2022-11-03T12:46:39;92225.63;;;12.18;72.29
52249;BME280;38541;48.130;8.378;2022-11-03T12:49:05;92233.81;;;12.17;71.65
52249;BME280;38541;48.130;8.378;2022-11-03T12:51:32;92225.13;;;12.16;72.09
52249;BME280;38541;48.130;8.378;2022-11-03T12:53:58;92220.34;;;12.18;71.70
52249;BME280;38541;48.130;8.378;2022-11-03T12:56:25;92215.88;;;12.19;71.71
52249;BME280;38541;48.130;8.378;2022-11-03T12:58:51;92209.31;;;12.16;71.32
52249;BME280;38541;48.130;8.378;2022-11-03T13:01:18;92202.84;;;12.08;71.18
52249;BME280;38541;48.130;8.378;2022-11-03T13:03:45;92209.47;;;12.06;71.42
52249;BME280;38541;48.130;8.378;2022-11-03T13:06:11;92201.09;;;11.98;71.84
52249;BME280;38541;48.130;8.378;2022-11-03T13:08:40;92192.78;;;11.91;71.54
52249;BME280;38541;48.130;8.378;2022-11-03T13:11:06;92185.50;;;11.83;71.76
52249;BME280;38541;48.130;8.378;2022-11-03T13:13:51;92188.22;;;11.78;72.08
52249;BME280;38541;48.130;8.378;2022-11-03T13:16:18;92190.34;;;11.76;72.20
52249;BME280;38541;48.130;8.378;2022-11-03T13:18:45;92191.91;;;11.77;71.78
52249;BME280;38541;48.130;8.378;2022-11-03T13:21:11;92182.72;;;11.74;72.36
52249;BME280;38541;48.130;8.378;2022-11-03T13:23:39;92171.66;;;11.77;72.31
52249;BME280;38541;48.130;8.378;2022-11-03T13:26:06;92163.47;;;11.79;71.96
52249;BME280;38541;48.130;8.378;2022-11-03T13:28:32;92168.38;;;11.85;71.49
52249;BME280;38541;48.130;8.378;2022-11-03T13:30:58;92154.38;;;11.90;71.25
52249;BME280;38541;48.130;8.378;2022-11-03T13:33:25;92157.50;;;11.92;71.25
52249;BME280;38541;48.130;8.378;2022-11-03T13:35:51;92161.69;;;11.93;71.13
52249;BME280;38541;48.130;8.378;2022-11-03T13:38:18;92147.53;;;11.89;71.02
52249;BME280;38541;48.130;8.378;2022-11-03T13:40:44;92140.22;;;11.86;70.35
52249;BME280;38541;48.130;8.378;2022-11-03T13:43:31;92130.75;;;11.85;70.24
52249;BME280;38541;48.130;8.378;2022-11-03T13:45:57;92132.03;;;11.88;70.06
52249;BME280;38541;48.130;8.378;2022-11-03T13:48:27;92132.81;;;11.88;70.23
52249;BME280;38541;48.130;8.378;2022-11-03T13:51:14;92113.09;;;11.85;70.21
52249;BME280;38541;48.130;8.378;2022-11-03T13:53:42;92102.84;;;11.84;70.10
52249;BME280;38541;48.130;8.378;2022-11-03T13:56:29;92105.78;;;11.82;69.77
52249;BME280;38541;48.130;8.378;2022-11-03T13:58:55;92108.75;;;11.76;69.61
52249;BME280;38541;48.130;8.378;2022-11-03T14:01:42;92121.69;;;11.72;69.94
52249;BME280;38541;48.130;8.378;2022-11-03T14:04:09;92120.13;;;11.71;70.44
52249;BME280;38541;48.130;8.378;2022-11-03T14:06:55;92110.97;;;11.68;70.29
52249;BME280;38541;48.130;8.378;2022-11-03T14:09:37;92105.72;;;11.68;69.74
52249;BME280;38541;48.130;8.378;2022-11-03T14:12:04;92087.00;;;11.70;68.87
52249;BME280;38541;48.130;8.378;2022-11-03T14:14:49;92072.78;;;11.71;69.11
52249;BME280;38541;48.130;8.378;2022-11-03T14:17:15;92077.28;;;11.70;68.50
52249;BME280;38541;48.130;8.378;2022-11-03T14:19:42;92083.28;;;11.71;68.34
52249;BME280;38541;48.130;8.378;2022-11-03T14:22:17;92070.84;;;11.77;68.23
52249;BME280;38541;48.130;8.378;2022-11-03T14:24:43;92066.56;;;11.81;67.70
52249;BME280;38541;48.130;8.378;2022-11-03T14:27:10;92060.31;;;11.77;66.95
52249;BME280;38541;48.130;8.378;2022-11-03T14:29:36;92065.81;;;11.80;67.78
52249;BME280;38541;48.130;8.378;2022-11-03T14:32:03;92077.69;;;11.78;69.50
52249;BME280;38541;48.130;8.378;2022-11-03T14:34:30;92070.22;;;11.66;70.12
52249;BME280;38541;48.130;8.378;2022-11-03T14:36:56;92065.19;;;11.69;70.20
52249;BME280;38541;48.130;8.378;2022-11-03T14:39:23;92058.34;;;11.68;70.27
52249;BME280;38541;48.130;8.378;2022-11-03T14:41:49;92060.19;;;11.68;70.10
52249;BME280;38541;48.130;8.378;2022-11-03T14:44:32;92056.94;;;11.57;70.69
52249;BME280;38541;48.130;8.378;2022-11-03T14:47:00;92050.91;;;11.56;70.94